Challenge Peak — 9V9589 — position and weather

sailwx.info

Track history (hours):
 
Tides and Currents Weather Stations Pressure Air Temp Water Temp Dewpoint Dewpoint Depression Visibility Wind Speed Wind Dir Waves Ship Positions

Challenge Peak

Last reported at 2017-Jan-04 17:32 UTC. Time now 2017-Jan-16 21:55 UTC.
Position S 18°17' E 121°03'.
Warning: this ship's position is 12 days out of date.

Length 182 m; draft 8.3 m.

Type: Tanker. MMSI: 566433000.

Date/timePositionNaut miles runAvg speedWind from/ knotsBaromVisibWave heightAir tempDewpointWater temp
2017-Jan-04 17:32S 18°17' E 121°03'1111.5
2017-Jan-04 16:33S 18°21' E 120°52'1211.6
2017-Jan-04 15:30S 18°26' E 120°40'2312.0
2017-Jan-04 13:33S 18°34' E 120°17'1312.6
2017-Jan-04 12:33S 18°38' E 120°05'1211.2
2017-Jan-04 11:27S 18°42' E 119°52'1011.2
2017-Jan-04 10:33S 18°45' E 119°42'1111.1
2017-Jan-04 09:33S 18°49' E 119°31'1111.1
2017-Jan-04 08:33S 18°52' E 119°20'1311.9
2017-Jan-04 07:30S 18°56' E 119°07'1212.8
2017-Jan-04 06:32S 19°01' E 118°55'1413.4
2017-Jan-04 05:30S 19°14' E 118°49'4013.7
2017-Jan-04 02:33S 19°50' E 118°30'1211.6
2017-Jan-04 01:32S 20°02' E 118°32'9 9.0
2017-Jan-04 00:33S 20°11' E 118°33'8 4.2
2017-Jan-03 22:31S 20°19' E 118°35'4 0.1
2017-Jan-02 09:33S 20°15' E 118°34'7 6.9
2017-Jan-02 08:33S 20°08' E 118°33'10 9.7
2017-Jan-02 07:33S 19°59' E 118°30'1310.5
2017-Jan-02 06:20S 19°47' E 118°25'1011.8
2017-Jan-02 05:31S 19°38' E 118°23'1212.8
2017-Jan-02 04:33S 19°26' E 118°20'1613.8
2017-Jan-02 03:23S 19°10' E 118°15'1214.3
2017-Jan-02 02:33S 18°59' E 118°12'10113.9
2017-Jan-01 19:17S 17°20' E 117°46'  
2016-Dec-27 20:19N 01°14' E 103°59'810.4
2016-Dec-27 19:33N 01°11' E 103°51'6 0.1
2016-Dec-25 18:22N 01°14' E 103°46'2 2.9
2016-Dec-25 17:33N 01°13' E 103°48'  
Track history (hours):
 
Tides and Currents Weather Stations Pressure Air Temp Water Temp Dewpoint Dewpoint Depression Visibility Wind Speed Wind Dir Waves Ship Positions

Challenge Peak

Last reported at 2017-Jan-04 17:32 UTC. Time now 2017-Jan-16 21:55 UTC.
Position S 18°17' E 121°03'.
Warning: this ship's position is 12 days out of date.

Length 182 m; draft 8.3 m.

Type: Tanker. MMSI: 566433000.

Date/timePositionNaut miles runAvg speedWind from/ knotsBaromVisibWave heightAir tempDewpointWater temp
2017-Jan-04 17:32S 18°17' E 121°03'1111.5
2017-Jan-04 16:33S 18°21' E 120°52'1211.6
2017-Jan-04 15:30S 18°26' E 120°40'2312.0
2017-Jan-04 13:33S 18°34' E 120°17'1312.6
2017-Jan-04 12:33S 18°38' E 120°05'1211.2
2017-Jan-04 11:27S 18°42' E 119°52'1011.2
2017-Jan-04 10:33S 18°45' E 119°42'1111.1
2017-Jan-04 09:33S 18°49' E 119°31'1111.1
2017-Jan-04 08:33S 18°52' E 119°20'1311.9
2017-Jan-04 07:30S 18°56' E 119°07'1212.8
2017-Jan-04 06:32S 19°01' E 118°55'1413.4
2017-Jan-04 05:30S 19°14' E 118°49'4013.7
2017-Jan-04 02:33S 19°50' E 118°30'1211.6
2017-Jan-04 01:32S 20°02' E 118°32'9 9.0
2017-Jan-04 00:33S 20°11' E 118°33'8 4.2
2017-Jan-03 22:31S 20°19' E 118°35'4 0.1
2017-Jan-02 09:33S 20°15' E 118°34'7 6.9
2017-Jan-02 08:33S 20°08' E 118°33'10 9.7
2017-Jan-02 07:33S 19°59' E 118°30'1310.5
2017-Jan-02 06:20S 19°47' E 118°25'1011.8
2017-Jan-02 05:31S 19°38' E 118°23'1212.8
2017-Jan-02 04:33S 19°26' E 118°20'1613.8
2017-Jan-02 03:23S 19°10' E 118°15'1214.3
2017-Jan-02 02:33S 18°59' E 118°12'10113.9
2017-Jan-01 19:17S 17°20' E 117°46'  
2016-Dec-27 20:19N 01°14' E 103°59'810.4
2016-Dec-27 19:33N 01°11' E 103°51'6 0.1
2016-Dec-25 18:22N 01°14' E 103°46'2 2.9
2016-Dec-25 17:33N 01°13' E 103°48'  

Dump ship's entire track history